Marshall, Oklahoma
Current Conditions -  °F | °C
As of 11:50 AM on Friday 19 Dec 2014 (Local Time) from KWDG Reporting Station
Haze Haze  
Wind Chill: 33°   Ceiling: 800
Heat Index: 37°   Visibility: 5mi
Dew Point: 34°   Wind: 6mph
Humidity: 87%   Direction: 50°NE
Pressure: 30.24"   Gusts: NA
Location:  36.15°N, 97.63°W
Report Text: KWDG 191750Z 05005KT 5SM BR SCT004 BKN008 OVC050 03/01 A3024
Loading
Personal Weather Stations






























Interactive Weather Map New forecast layout! Learn more

10-Day Weather Forecast

Advertisements
Track Severe Weather on mobile